Time;durP1;ratioP1;P1;durP2;ratioP2;P2;SDS_P1;SDS_P2;PMS_P1;PMS_P2;Temp;Humidity;BMP_temperature;BMP_pressure;BME280_temperature;BME280_humidity;BME280_pressure;Samples;Min_cycle;Max_cycle;Signal;HPM_P1;HPM_P2
2022/01/28 00:00:19;;;;;;;;;;;;;;;4.81;100.00;102951.25;5067389;28;19921;-80
2022/01/28 00:02:55;;;;;;;;;;;;;;;4.93;100.00;102957.63;5068218;28;19931;-80
2022/01/28 00:05:24;;;;;;;;;;;;;;;4.88;100.00;102957.97;5066061;28;20328;-81
2022/01/28 00:08:09;;;;;;;;;;;;;;;4.88;100.00;102957.97;5062592;28;19978;-81
2022/01/28 00:10:56;;;;;;;;;;;;;;;4.90;100.00;102967.78;5072670;28;20045;-81
2022/01/28 00:13:41;;;;;;;;;;;;;;;4.91;100.00;102966.06;5071974;28;19931;-80
2022/01/28 00:19:16;;;;;;;;;;;;;;;5.03;100.00;102975.97;5064367;28;19920;-79
2022/01/28 00:38:10;;;;;;;;;;;;;;;5.09;100.00;102982.53;5089711;28;19927;-80
2022/01/28 00:40:35;;;;;;;;;;;;;;;5.02;100.00;102974.13;5062127;28;19959;-79
2022/01/28 00:43:06;;;;;;;;;;;;;;;5.06;100.00;102977.94;5078906;28;20323;-80
2022/01/28 00:45:31;;;;;;;;;;;;;;;5.08;100.00;102979.03;5077436;28;20021;-79
2022/01/28 00:47:56;;;;;;;;;;;;;;;5.12;100.00;102982.81;5062609;28;19924;-78
2022/01/28 00:50:22;;;;;;;;;;;;;;;5.06;100.00;102991.00;5078193;28;19980;-79
2022/01/28 00:52:52;;;;;;;;;;;;;;;5.05;100.00;102999.63;5065915;28;19921;-79
2022/01/28 00:55:17;;;;;;;;;;;;;;;4.99;100.00;103007.78;5059055;28;20014;-79
2022/01/28 00:57:50;;;;;;;;;;;;;;;4.98;100.00;103012.88;5096104;28;20006;-79
2022/01/28 01:00:15;;;;;;;;;;;;;;;5.04;100.00;103006.53;5062350;28;19924;-79
2022/01/28 01:02:42;;;;;;;;;;;;;;;5.08;100.00;103009.41;5077477;28;19924;-80
2022/01/28 01:05:07;;;;;;;;;;;;;;;5.06;100.00;102998.84;5073205;28;19925;-80
2022/01/28 01:07:33;;;;;;;;;;;;;;;5.14;100.00;102996.94;5073335;28;19920;-80
2022/01/28 01:09:58;;;;;;;;;;;;;;;5.15;100.00;102999.69;5096296;28;19942;-80
2022/01/28 01:12:26;;;;;;;;;;;;;;;5.10;100.00;103002.66;5073124;28;20280;-80
2022/01/28 01:14:51;;;;;;;;;;;;;;;5.12;100.00;102995.88;5075952;28;20361;-80
2022/01/28 01:17:27;;;;;;;;;;;;;;;5.10;100.00;103000.97;5069738;28;19927;-80
2022/01/28 01:20:04;;;;;;;;;;;;;;;5.10;100.00;103003.56;5056667;28;19957;-81
2022/01/28 01:22:37;;;;;;;;;;;;;;;5.10;100.00;102997.44;5075139;28;19920;-81
2022/01/28 01:25:04;;;;;;;;;;;;;;;5.03;100.00;103004.72;5078306;28;19928;-80
2022/01/28 01:27:30;;;;;;;;;;;;;;;5.01;100.00;103003.63;5078491;28;19920;-81
2022/01/28 01:29:55;;;;;;;;;;;;;;;5.00;100.00;103011.31;5078537;28;19990;-81
2022/01/28 01:32:22;;;;;;;;;;;;;;;5.02;100.00;103015.00;5074265;28;19920;-81
2022/01/28 01:34:47;;;;;;;;;;;;;;;5.00;100.00;103024.38;5078781;28;19950;-81
2022/01/28 01:37:12;;;;;;;;;;;;;;;5.00;100.00;103029.59;5071652;28;20423;-81
2022/01/28 01:39:40;;;;;;;;;;;;;;;4.92;100.00;103038.41;5058141;28;19929;-79
2022/01/28 01:42:42;;;;;;;;;;;;;;;4.88;100.00;103034.59;5069667;28;20158;-81
2022/01/28 01:53:23;;;;;;;;;;;;;;;4.79;100.00;103034.66;5079934;28;20035;-80
2022/01/28 01:55:49;;;;;;;;;;;;;;;4.73;100.00;103030.56;5061463;28;19956;-80
2022/01/28 01:58:14;;;;;;;;;;;;;;;4.69;100.00;103029.31;5077543;28;19924;-79
2022/01/28 02:00:41;;;;;;;;;;;;;;;4.76;100.00;103023.91;5095425;28;19924;-80
2022/01/28 02:03:12;;;;;;;;;;;;;;;4.93;100.00;103030.72;5062787;28;19928;-79
2022/01/28 02:05:45;;;;;;;;;;;;;;;5.06;100.00;103030.16;5077237;28;19932;-80
2022/01/28 02:08:10;;;;;;;;;;;;;;;5.16;100.00;103030.25;5087339;28;19920;-79
2022/01/28 02:10:35;;;;;;;;;;;;;;;5.25;100.00;103035.44;5060707;28;19931;-80
2022/01/28 02:13:09;;;;;;;;;;;;;;;5.44;100.00;103034.47;5086029;28;19920;-79
2022/01/28 02:15:34;;;;;;;;;;;;;;;5.50;100.00;103045.50;5076980;28;19931;-80
2022/01/28 02:18:00;;;;;;;;;;;;;;;5.44;100.00;103056.31;5071887;28;19920;-79
2022/01/28 02:20:33;;;;;;;;;;;;;;;5.33;100.00;103052.72;5071859;28;19926;-79
2022/01/28 02:22:59;;;;;;;;;;;;;;;5.21;100.00;103038.53;5076678;28;19998;-79
2022/01/28 02:25:26;;;;;;;;;;;;;;;5.07;100.00;103034.63;5077070;28;19966;-79
2022/01/28 02:27:57;;;;;;;;;;;;;;;4.88;100.00;103037.22;5069313;28;19920;-79
2022/01/28 02:30:24;;;;;;;;;;;;;;;4.76;100.00;103043.88;5073921;28;19929;-79
2022/01/28 02:32:50;;;;;;;;;;;;;;;4.72;100.00;103039.13;5057856;28;19924;-79
2022/01/28 02:35:16;;;;;;;;;;;;;;;4.73;100.00;103041.00;5058099;28;19966;-80
2022/01/28 02:37:45;;;;;;;;;;;;;;;4.68;100.00;103044.06;5088719;28;19920;-80
2022/01/28 02:40:10;;;;;;;;;;;;;;;4.57;100.00;103042.13;5040904;28;20304;-80
2022/01/28 02:42:58;;;;;;;;;;;;;;;4.47;100.00;103036.81;5073054;28;19956;-81
2022/01/28 02:45:34;;;;;;;;;;;;;;;4.41;100.00;103042.38;5076259;28;19920;-79
2022/01/28 02:48:06;;;;;;;;;;;;;;;4.36;100.00;103055.72;5075127;28;19927;-79
2022/01/28 02:50:40;;;;;;;;;;;;;;;4.42;100.00;103038.06;5041158;28;20368;-79
2022/01/28 02:53:25;;;;;;;;;;;;;;;4.40;100.00;103047.44;5072851;28;19920;-79
2022/01/28 02:56:20;;;;;;;;;;;;;;;4.34;100.00;103047.75;5083408;28;20394;-79
2022/01/28 02:58:49;;;;;;;;;;;;;;;4.34;100.00;103057.28;5076836;28;19950;-77
2022/01/28 03:01:17;;;;;;;;;;;;;;;4.30;100.00;103057.00;5059491;28;20286;-80
2022/01/28 03:04:00;;;;;;;;;;;;;;;4.31;100.00;103050.97;5055796;28;19970;-79
2022/01/28 03:06:25;;;;;;;;;;;;;;;4.35;100.00;103054.81;5057050;28;20058;-79
2022/01/28 03:08:57;;;;;;;;;;;;;;;4.38;100.00;103052.50;5058075;28;20388;-79
2022/01/28 03:16:19;;;;;;;;;;;;;;;4.43;100.00;103060.78;5094654;28;20438;-79
2022/01/28 03:24:15;;;;;;;;;;;;;;;4.53;100.00;103057.34;5077904;28;19924;-79
2022/01/28 03:26:41;;;;;;;;;;;;;;;4.57;100.00;103070.84;5077205;28;20015;-80
2022/01/28 03:29:09;;;;;;;;;;;;;;;4.53;100.00;103059.97;5079710;28;19921;-80
2022/01/28 03:31:38;;;;;;;;;;;;;;;4.53;100.00;103062.56;5075669;28;20291;-80
2022/01/28 03:34:11;;;;;;;;;;;;;;;4.53;100.00;103063.47;5072062;28;19959;-79
2022/01/28 03:36:38;;;;;;;;;;;;;;;4.46;100.00;103064.59;5080720;28;19920;-79
2022/01/28 03:39:04;;;;;;;;;;;;;;;4.42;100.00;103071.97;5091866;28;19926;-79
2022/01/28 03:41:29;;;;;;;;;;;;;;;4.42;100.00;103070.28;5072450;28;20007;-80
2022/01/28 03:44:01;;;;;;;;;;;;;;;4.41;100.00;103073.69;5056089;28;19978;-79
2022/01/28 03:46:26;;;;;;;;;;;;;;;4.34;100.00;103078.16;5059246;28;19925;-79
2022/01/28 03:48:53;;;;;;;;;;;;;;;4.38;100.00;103085.47;5071565;28;19924;-79
2022/01/28 03:51:19;;;;;;;;;;;;;;;4.29;100.00;103089.06;5089504;28;19928;-79
2022/01/28 03:53:46;;;;;;;;;;;;;;;4.29;100.00;103088.13;5070870;28;19977;-79
2022/01/28 03:56:12;;;;;;;;;;;;;;;4.34;100.00;103089.50;5076310;28;19993;-79
2022/01/28 03:58:38;;;;;;;;;;;;;;;4.30;100.00;103093.50;5067603;28;19921;-80
2022/01/28 04:01:11;;;;;;;;;;;;;;;4.29;100.00;103106.41;5092785;28;19976;-80
2022/01/28 04:03:47;;;;;;;;;;;;;;;4.26;100.00;103108.72;5078240;28;19921;-79
2022/01/28 04:11:44;;;;;;;;;;;;;;;4.08;100.00;103110.41;5074221;28;19927;-80
2022/01/28 04:14:14;;;;;;;;;;;;;;;4.04;100.00;103106.59;5091093;28;20241;-79
2022/01/28 04:19:21;;;;;;;;;;;;;;;3.98;100.00;103123.31;5093699;28;19920;-79
2022/01/28 04:21:47;;;;;;;;;;;;;;;3.95;100.00;103127.44;5076249;28;19920;-80
2022/01/28 04:24:12;;;;;;;;;;;;;;;3.89;100.00;103132.06;5058176;28;19997;-79
2022/01/28 04:26:38;;;;;;;;;;;;;;;3.88;100.00;103142.34;5094650;28;19920;-80
2022/01/28 04:29:07;;;;;;;;;;;;;;;3.85;100.00;103139.41;5070062;28;20344;-80
2022/01/28 04:31:41;;;;;;;;;;;;;;;3.81;100.00;103138.19;5092262;28;19920;-80
2022/01/28 04:34:06;;;;;;;;;;;;;;;3.76;100.00;103152.47;5075298;28;19995;-80
2022/01/28 04:36:43;;;;;;;;;;;;;;;3.59;100.00;103159.50;5093251;28;19927;-80
2022/01/28 04:39:21;;;;;;;;;;;;;;;3.50;100.00;103157.66;5036721;28;20019;-80
2022/01/28 04:42:34;;;;;;;;;;;;;;;3.35;100.00;103160.50;5036930;28;20423;-80
2022/01/28 04:50:19;;;;;;;;;;;;;;;3.10;100.00;103164.91;5072729;28;19921;-79
2022/01/28 04:53:05;;;;;;;;;;;;;;;3.15;100.00;103168.88;5055088;28;19921;-79
2022/01/28 05:03:36;;;;;;;;;;;;;;;3.08;100.00;103169.03;5069289;28;20254;-79
2022/01/28 05:06:37;;;;;;;;;;;;;;;3.23;100.00;103162.81;5039141;28;20348;-80
2022/01/28 05:27:18;;;;;;;;;;;;;;;2.99;100.00;103162.88;5095676;28;19927;-80
2022/01/28 05:29:44;;;;;;;;;;;;;;;2.96;100.00;103163.47;5076319;28;19924;-79
2022/01/28 05:32:21;;;;;;;;;;;;;;;2.99;100.00;103162.88;5059106;28;19982;-79
2022/01/28 05:34:47;;;;;;;;;;;;;;;2.88;100.00;103161.75;5058279;28;20015;-79
2022/01/28 05:37:13;;;;;;;;;;;;;;;2.86;100.00;103168.50;5044133;28;19963;-79
2022/01/28 05:39:38;;;;;;;;;;;;;;;2.80;100.00;103179.16;5074962;28;20395;-80
2022/01/28 05:42:05;;;;;;;;;;;;;;;2.78;100.00;103175.50;5074985;28;19921;-80
2022/01/28 05:44:30;;;;;;;;;;;;;;;2.73;100.00;103184.47;5074035;28;19921;-80
2022/01/28 05:46:57;;;;;;;;;;;;;;;2.65;100.00;103185.38;5080895;28;19927;-80
2022/01/28 05:49:22;;;;;;;;;;;;;;;2.59;100.00;103183.03;5049908;28;19928;-81
2022/01/28 05:51:48;;;;;;;;;;;;;;;2.59;100.00;103182.13;5038545;28;20379;-81
2022/01/28 05:54:13;;;;;;;;;;;;;;;2.57;100.00;103178.44;5073412;28;20468;-81
2022/01/28 05:56:39;;;;;;;;;;;;;;;2.53;100.00;103184.06;5078385;28;19927;-82
2022/01/28 05:59:04;;;;;;;;;;;;;;;2.51;100.00;103191.72;5077940;28;19927;-79
2022/01/28 06:01:33;;;;;;;;;;;;;;;2.47;100.00;103185.28;5077722;28;19916;-79
2022/01/28 06:03:58;;;;;;;;;;;;;;;2.57;100.00;103186.25;5077729;28;19927;-80
2022/01/28 06:06:25;;;;;;;;;;;;;;;2.64;100.00;103191.31;5076810;28;19924;-81
2022/01/28 06:08:54;;;;;;;;;;;;;;;2.76;100.00;103203.03;5077114;28;19923;-79
2022/01/28 06:11:20;;;;;;;;;;;;;;;2.72;100.00;103207.75;5076378;28;19920;-78
2022/01/28 06:13:47;;;;;;;;;;;;;;;2.66;100.00;103214.16;5061293;28;19931;-81
2022/01/28 06:16:17;;;;;;;;;;;;;;;2.58;100.00;103209.81;5095778;28;19920;-82
2022/01/28 06:18:44;;;;;;;;;;;;;;;2.53;100.00;103207.47;5060221;28;19931;-80
2022/01/28 06:21:12;;;;;;;;;;;;;;;2.58;100.00;103219.28;5076369;28;19961;-80
2022/01/28 06:23:38;;;;;;;;;;;;;;;2.51;100.00;103228.13;5059876;28;19921;-80
2022/01/28 06:26:04;;;;;;;;;;;;;;;2.48;100.00;103223.50;5054401;28;20015;-81
2022/01/28 06:28:39;;;;;;;;;;;;;;;2.38;100.00;103223.31;5075397;28;19920;-82
2022/01/28 06:31:11;;;;;;;;;;;;;;;2.29;100.00;103231.03;5057538;28;19982;-82
2022/01/28 06:33:45;;;;;;;;;;;;;;;2.26;100.00;103234.97;5059167;28;19974;-80
2022/01/28 06:36:13;;;;;;;;;;;;;;;2.23;100.00;103230.38;5092043;28;19920;-81
2022/01/28 06:38:50;;;;;;;;;;;;;;;2.20;100.00;103231.72;5074210;28;19936;-80
2022/01/28 06:41:18;;;;;;;;;;;;;;;2.17;100.00;103236.59;5084067;28;20349;-80
2022/01/28 06:43:48;;;;;;;;;;;;;;;2.09;100.00;103252.25;5074732;28;19920;-79
2022/01/28 06:46:14;;;;;;;;;;;;;;;2.03;100.00;103251.59;5056936;28;19920;-79
2022/01/28 06:48:39;;;;;;;;;;;;;;;2.04;100.00;103248.25;5076506;28;19920;-83
2022/01/28 06:51:05;;;;;;;;;;;;;;;2.06;100.00;103259.72;5060359;28;19970;-82
2022/01/28 06:53:31;;;;;;;;;;;;;;;2.05;100.00;103268.31;5063262;28;20073;-80
2022/01/28 06:55:56;;;;;;;;;;;;;;;2.12;100.00;103263.00;5056808;28;19925;-81
2022/01/28 06:58:21;;;;;;;;;;;;;;;2.10;100.00;103269.72;5056333;28;19952;-81
2022/01/28 07:00:47;;;;;;;;;;;;;;;2.07;100.00;103271.97;5056456;28;19920;-81
2022/01/28 07:03:14;;;;;;;;;;;;;;;2.15;100.00;103270.22;5056323;28;20321;-82
2022/01/28 07:05:40;;;;;;;;;;;;;;;2.10;100.00;103272.31;5068922;28;19927;-81
2022/01/28 07:08:05;;;;;;;;;;;;;;;2.13;100.00;103275.25;5076143;28;19920;-78
2022/01/28 07:10:31;;;;;;;;;;;;;;;2.04;100.00;103269.03;5093175;28;19977;-80
2022/01/28 07:13:00;;;;;;;;;;;;;;;2.02;100.00;103262.78;5076246;28;20284;-80
2022/01/28 07:15:26;;;;;;;;;;;;;;;2.03;100.00;103267.19;5075973;28;19950;-78
2022/01/28 07:17:52;;;;;;;;;;;;;;;2.06;100.00;103272.72;5094603;28;19920;-78
2022/01/28 07:20:17;;;;;;;;;;;;;;;2.07;100.00;103276.28;5075681;28;19936;-81
2022/01/28 07:22:43;;;;;;;;;;;;;;;2.04;100.00;103273.34;5075525;28;20291;-81
2022/01/28 07:25:08;;;;;;;;;;;;;;;2.01;100.00;103284.31;5076229;28;19927;-78
2022/01/28 07:27:34;;;;;;;;;;;;;;;1.98;100.00;103291.75;5076082;28;19924;-81
2022/01/28 07:29:59;;;;;;;;;;;;;;;2.02;100.00;103300.81;5067692;28;19921;-82
2022/01/28 07:32:25;;;;;;;;;;;;;;;2.03;100.00;103297.47;5055534;28;19921;-78
2022/01/28 07:34:51;;;;;;;;;;;;;;;2.04;100.00;103300.22;5046222;28;19925;-81
2022/01/28 07:37:17;;;;;;;;;;;;;;;2.05;100.00;103295.94;5038369;28;19948;-82
2022/01/28 07:39:42;;;;;;;;;;;;;;;2.12;100.00;103288.06;5053071;28;20257;-78
2022/01/28 07:42:08;;;;;;;;;;;;;;;2.03;100.00;103290.59;5067325;28;19974;-80
2022/01/28 07:44:34;;;;;;;;;;;;;;;2.05;100.00;103308.94;5072939;28;19982;-80
2022/01/28 07:46:59;;;;;;;;;;;;;;;2.08;100.00;103314.47;5076105;28;19920;-78
2022/01/28 07:49:24;;;;;;;;;;;;;;;2.05;100.00;103321.94;5072637;28;19921;-81
2022/01/28 07:51:49;;;;;;;;;;;;;;;2.03;100.00;103326.06;5079160;28;19924;-78
2022/01/28 07:54:15;;;;;;;;;;;;;;;2.05;100.00;103327.13;5083535;28;19920;-78
2022/01/28 07:56:40;;;;;;;;;;;;;;;2.04;100.00;103333.13;5074254;28;20036;-82
2022/01/28 07:59:06;;;;;;;;;;;;;;;2.02;100.00;103332.94;5092968;28;19919;-82
2022/01/28 08:01:31;;;;;;;;;;;;;;;2.01;100.00;103333.69;5084890;28;19921;-83
2022/01/28 08:03:58;;;;;;;;;;;;;;;2.03;100.00;103332.16;5076052;28;19920;-82
2022/01/28 08:06:25;;;;;;;;;;;;;;;2.05;100.00;103341.09;5073304;28;19927;-79
2022/01/28 08:08:52;;;;;;;;;;;;;;;2.07;100.00;103330.84;5090850;28;20018;-80
2022/01/28 08:11:17;;;;;;;;;;;;;;;2.19;100.00;103347.78;5091973;28;19953;-77
2022/01/28 08:13:43;;;;;;;;;;;;;;;2.23;100.00;103341.25;5093597;28;19927;-81
2022/01/28 08:16:08;;;;;;;;;;;;;;;2.21;100.00;103341.06;5076770;28;19921;-82
2022/01/28 08:18:34;;;;;;;;;;;;;;;2.21;100.00;103337.56;5076968;28;19931;-81
2022/01/28 08:20:59;;;;;;;;;;;;;;;2.26;100.00;103338.97;5093187;28;19920;-81
2022/01/28 08:23:32;;;;;;;;;;;;;;;2.30;100.00;103339.47;5082128;28;20305;-81
2022/01/28 08:25:58;;;;;;;;;;;;;;;2.30;100.00;103335.94;5075501;28;19927;-81
2022/01/28 08:28:23;;;;;;;;;;;;;;;2.34;100.00;103345.94;5088339;28;19920;-80
2022/01/28 08:30:48;;;;;;;;;;;;;;;2.42;100.00;103341.56;5075507;28;19921;-80
2022/01/28 08:33:18;;;;;;;;;;;;;;;2.49;100.00;103329.41;5068934;28;20362;-81
2022/01/28 08:35:51;;;;;;;;;;;;;;;2.57;100.00;103339.72;5079840;28;19920;-81
2022/01/28 08:38:24;;;;;;;;;;;;;;;2.71;100.00;103346.41;5082139;28;19940;-82
2022/01/28 08:40:52;;;;;;;;;;;;;;;2.84;100.00;103354.75;5040055;28;19927;-79
2022/01/28 08:43:26;;;;;;;;;;;;;;;2.99;100.00;103352.91;5056458;28;20009;-81
2022/01/28 08:45:52;;;;;;;;;;;;;;;3.16;100.00;103345.19;5056951;28;19921;-79
2022/01/28 08:48:17;;;;;;;;;;;;;;;3.36;100.00;103354.19;5039967;28;19927;-82
2022/01/28 08:50:42;;;;;;;;;;;;;;;3.49;100.00;103341.66;5039981;28;20011;-81
2022/01/28 08:53:09;;;;;;;;;;;;;;;3.69;100.00;103350.66;5040536;28;19943;-79
2022/01/28 08:55:34;;;;;;;;;;;;;;;3.78;100.00;103356.81;5040013;28;19925;-83
2022/01/28 08:58:01;;;;;;;;;;;;;;;3.89;100.00;103357.94;5040060;28;20350;-82
2022/01/28 09:00:26;;;;;;;;;;;;;;;3.96;100.00;103349.97;5047509;28;19924;-81
2022/01/28 09:02:53;;;;;;;;;;;;;;;4.01;100.00;103345.22;5063091;28;20005;-79
2022/01/28 09:05:20;;;;;;;;;;;;;;;4.01;100.00;103343.56;5078893;28;19920;-80
2022/01/28 09:07:45;;;;;;;;;;;;;;;4.06;100.00;103350.16;5079526;28;20018;-79
2022/01/28 09:10:17;;;;;;;;;;;;;;;4.13;100.00;103352.63;5079806;28;19960;-81
2022/01/28 09:12:49;;;;;;;;;;;;;;;4.17;100.00;103352.94;5079132;28;19924;-82
2022/01/28 09:15:14;;;;;;;;;;;;;;;4.26;100.00;103357.41;5063272;28;19970;-78
2022/01/28 09:17:39;;;;;;;;;;;;;;;4.35;100.00;103373.06;5074367;28;19921;-82
2022/01/28 09:20:05;;;;;;;;;;;;;;;4.43;100.00;103379.06;5061439;28;19928;-78
2022/01/28 09:22:31;;;;;;;;;;;;;;;4.59;100.00;103373.72;5057480;28;19920;-80
2022/01/28 09:24:57;;;;;;;;;;;;;;;4.62;100.00;103380.16;5066410;28;20395;-80
2022/01/28 09:27:22;;;;;;;;;;;;;;;4.71;100.00;103384.44;5079541;28;19924;-81
2022/01/28 09:29:50;;;;;;;;;;;;;;;4.76;100.00;103383.22;5078987;28;19924;-77
2022/01/28 09:32:18;;;;;;;;;;;;;;;4.87;100.00;103371.25;5056299;28;19983;-82
2022/01/28 09:34:44;;;;;;;;;;;;;;;4.95;100.00;103381.66;5061374;28;19925;-82
2022/01/28 09:37:11;;;;;;;;;;;;;;;5.04;100.00;103382.59;5096704;28;20010;-82
2022/01/28 09:39:42;;;;;;;;;;;;;;;5.15;100.00;103374.91;5078703;28;19920;-81
2022/01/28 09:42:12;;;;;;;;;;;;;;;5.13;100.00;103373.84;5096955;28;20014;-81
2022/01/28 09:44:38;;;;;;;;;;;;;;;5.24;100.00;103378.41;5078577;28;19939;-83
2022/01/28 09:47:04;;;;;;;;;;;;;;;5.37;100.00;103381.44;5065818;28;19921;-80
2022/01/28 09:49:33;;;;;;;;;;;;;;;5.45;100.00;103379.56;5038251;28;20380;-80
2022/01/28 09:52:22;;;;;;;;;;;;;;;5.54;100.00;103387.41;5055668;28;20349;-82
2022/01/28 09:54:48;;;;;;;;;;;;;;;5.63;100.00;103379.53;5038528;28;20002;-83
2022/01/28 09:57:27;;;;;;;;;;;;;;;5.64;100.00;103377.06;5075863;28;20272;-82
2022/01/28 09:59:52;;;;;;;;;;;;;;;5.69;100.00;103374.91;5057926;28;20006;-80
2022/01/28 10:05:37;;;;;;;;;;;;;;;5.77;100.00;103386.09;5055925;28;19921;-81
2022/01/28 10:08:11;;;;;;;;;;;;;;;5.87;100.00;103387.13;5045687;28;19925;-83
2022/01/28 10:10:41;;;;;;;;;;;;;;;5.86;100.00;103385.28;5037344;28;19921;-79
2022/01/28 10:13:18;;;;;;;;;;;;;;;5.90;100.00;103403.09;5049915;28;19921;-80
2022/01/28 10:16:22;;;;;;;;;;;;;;;5.99;100.00;103412.63;5058828;28;19981;-78
2022/01/28 10:19:11;;;;;;;;;;;;;;;5.99;100.00;103407.41;5093519;28;19916;-78
2022/01/28 10:21:39;;;;;;;;;;;;;;;6.02;100.00;103420.78;5077237;28;20356;-84
2022/01/28 10:24:14;;;;;;;;;;;;;;;6.07;100.00;103424.75;5093328;28;19969;-81
2022/01/28 10:27:06;;;;;;;;;;;;;;;6.07;100.00;103427.34;5095829;28;19920;-82
2022/01/28 10:30:04;;;;;;;;;;;;;;;6.11;100.00;103446.09;5081003;28;20330;-81
2022/01/28 10:32:41;;;;;;;;;;;;;;;6.17;100.00;103442.22;5095341;28;20407;-82
2022/01/28 10:35:07;;;;;;;;;;;;;;;6.20;100.00;103439.91;5059093;28;20010;-80
2022/01/28 10:38:03;;;;;;;;;;;;;;;6.34;100.00;103446.44;5060755;28;19920;-82
2022/01/28 10:40:30;;;;;;;;;;;;;;;6.36;100.00;103448.44;5074167;28;20011;-82
2022/01/28 10:43:07;;;;;;;;;;;;;;;6.43;100.00;103445.63;5055851;28;19925;-83
2022/01/28 10:45:39;;;;;;;;;;;;;;;6.52;100.00;103447.28;5055362;28;20626;-81
2022/01/28 10:48:49;;;;;;;;;;;;;;;6.49;100.00;103446.97;5074205;28;19936;-81
2022/01/28 10:51:57;;;;;;;;;;;;;;;6.45;100.00;103440.56;5074700;28;20253;-81
2022/01/28 10:54:28;;;;;;;;;;;;;;;6.54;100.00;103438.81;5071802;28;19924;-79
2022/01/28 10:57:24;;;;;;;;;;;;;;;6.61;100.00;103435.97;5052546;28;20365;-82
2022/01/28 10:59:52;;;;;;;;;;;;;;;6.63;100.00;103433.47;5074742;28;19998;-80
2022/01/28 11:02:41;;;;;;;;;;;;;;;6.75;100.00;103433.72;5074129;28;19920;-81
2022/01/28 11:05:30;;;;;;;;;;;;;;;6.83;100.00;103430.09;5081229;28;19942;-82
2022/01/28 11:08:00;;;;;;;;;;;;;;;6.81;100.00;103435.19;5059660;28;19981;-81
2022/01/28 11:10:28;;;;;;;;;;;;;;;6.82;100.00;103434.44;5073424;28;20010;-80
2022/01/28 11:13:04;;;;;;;;;;;;;;;6.87;100.00;103423.44;5073567;28;19927;-82
2022/01/28 11:15:42;;;;;;;;;;;;;;;6.89;100.00;103412.31;5073180;28;19927;-81
2022/01/28 11:18:13;;;;;;;;;;;;;;;7.02;100.00;103419.59;5073441;28;19927;-82
2022/01/28 11:20:59;;;;;;;;;;;;;;;7.08;100.00;103425.41;5056670;28;19925;-82
2022/01/28 11:23:40;;;;;;;;;;;;;;;7.05;100.00;103413.72;5072317;28;20280;-81
2022/01/28 11:26:15;;;;;;;;;;;;;;;7.04;100.00;103412.81;5073297;28;19927;-84
2022/01/28 11:28:43;;;;;;;;;;;;;;;7.11;100.00;103402.09;5073315;28;20164;-83
2022/01/28 11:31:09;;;;;;;;;;;;;;;7.22;100.00;103394.31;5073310;28;19920;-84
2022/01/28 11:33:43;;;;;;;;;;;;;;;7.29;100.00;103394.09;5056180;28;19936;-83
2022/01/28 11:36:08;;;;;;;;;;;;;;;7.39;100.00;103395.81;5073386;28;19974;-82
2022/01/28 11:38:34;;;;;;;;;;;;;;;7.55;100.00;103391.16;5075631;28;19924;-83
2022/01/28 11:41:01;;;;;;;;;;;;;;;7.65;100.00;103395.53;5076482;28;19920;-83
2022/01/28 11:43:28;;;;;;;;;;;;;;;7.75;100.00;103402.50;5093540;28;20425;-82
2022/01/28 11:46:10;;;;;;;;;;;;;;;7.87;100.00;103396.63;5076513;28;19920;-82
2022/01/28 11:48:54;;;;;;;;;;;;;;;7.89;100.00;103396.75;5094624;28;19920;-83
2022/01/28 11:51:23;;;;;;;;;;;;;;;8.03;100.00;103388.41;5076821;28;20282;-82
2022/01/28 11:53:55;;;;;;;;;;;;;;;7.97;100.00;103397.44;5078140;28;19927;-80
2022/01/28 11:56:21;;;;;;;;;;;;;;;7.74;100.00;103385.84;5060014;28;19981;-84
2022/01/28 11:59:05;;;;;;;;;;;;;;;7.49;100.00;103394.16;5071870;28;19924;-83
2022/01/28 12:01:40;;;;;;;;;;;;;;;7.18;100.00;103394.03;5076527;28;19920;-81
2022/01/28 12:04:24;;;;;;;;;;;;;;;7.15;100.00;103385.88;5077081;28;19920;-83
2022/01/28 12:07:13;;;;;;;;;;;;;;;7.13;100.00;103376.97;5076913;28;20341;-83
2022/01/28 12:09:42;;;;;;;;;;;;;;;7.18;100.00;103367.81;5078573;28;19920;-82
2022/01/28 12:12:10;;;;;;;;;;;;;;;7.23;100.00;103363.00;5080536;28;19920;-81
2022/01/28 12:15:00;;;;;;;;;;;;;;;7.14;100.00;103365.69;5080617;28;19974;-83
2022/01/28 12:17:32;;;;;;;;;;;;;;;7.04;100.00;103352.56;5080160;28;20091;-82
2022/01/28 12:20:09;;;;;;;;;;;;;;;7.03;100.00;103345.47;5081151;28;19927;-82
2022/01/28 12:22:54;;;;;;;;;;;;;;;7.05;100.00;103346.53;5080654;28;19924;-82
2022/01/28 12:25:35;;;;;;;;;;;;;;;7.04;100.00;103339.47;5098649;28;19926;-80
2022/01/28 12:28:17;;;;;;;;;;;;;;;7.13;100.00;103335.06;5080565;28;19920;-81
2022/01/28 12:30:46;;;;;;;;;;;;;;;7.47;100.00;103337.13;5098325;28;19924;-82
2022/01/28 12:33:13;;;;;;;;;;;;;;;7.73;100.00;103332.47;5080333;28;20275;-82
2022/01/28 12:35:39;;;;;;;;;;;;;;;8.01;100.00;103329.59;5080598;28;19981;-81
2022/01/28 12:38:05;;;;;;;;;;;;;;;8.23;100.00;103321.88;5080144;28;19927;-79
2022/01/28 12:40:36;;;;;;;;;;;;;;;8.37;100.00;103317.78;5079581;28;20352;-82
2022/01/28 12:43:03;;;;;;;;;;;;;;;8.35;100.00;103310.56;5080152;28;19932;-83
2022/01/28 12:45:28;;;;;;;;;;;;;;;8.41;100.00;103312.00;5098056;28;20368;-82
2022/01/28 12:47:53;;;;;;;;;;;;;;;8.42;100.00;103319.09;5080646;28;19920;-81
2022/01/28 12:50:20;;;;;;;;;;;;;;;8.48;100.00;103323.06;5087286;28;19920;-82
2022/01/28 12:52:46;;;;;;;;;;;;;;;8.38;100.00;103311.75;5086367;28;19920;-82
2022/01/28 12:55:12;;;;;;;;;;;;;;;8.30;100.00;103309.25;5080932;28;19977;-82
2022/01/28 12:57:47;;;;;;;;;;;;;;;8.23;100.00;103305.19;5080078;28;19989;-82
2022/01/28 13:00:13;;;;;;;;;;;;;;;8.18;100.00;103299.56;5079703;28;20066;-82
2022/01/28 13:02:40;;;;;;;;;;;;;;;8.15;100.00;103306.25;5077684;28;19920;-81
2022/01/28 13:10:20;;;;;;;;;;;;;;;8.03;100.00;103298.25;5083186;28;19981;-82
2022/01/28 13:13:01;;;;;;;;;;;;;;;8.08;100.00;103286.47;5098305;28;19924;-83
2022/01/28 13:15:29;;;;;;;;;;;;;;;8.17;100.00;103279.38;5079365;28;19920;-83
2022/01/28 13:17:59;;;;;;;;;;;;;;;8.17;100.00;103284.63;5079603;28;19970;-80
2022/01/28 13:20:31;;;;;;;;;;;;;;;8.23;100.00;103284.19;5078711;28;19920;-80
2022/01/28 13:22:56;;;;;;;;;;;;;;;8.39;100.00;103289.97;5062987;28;19971;-80
2022/01/28 13:25:23;;;;;;;;;;;;;;;8.40;100.00;103285.63;5059505;28;19928;-83
2022/01/28 13:27:53;;;;;;;;;;;;;;;8.48;100.00;103296.78;5066774;28;19958;-85
2022/01/28 13:30:19;;;;;;;;;;;;;;;8.42;100.00;103284.97;5069624;28;19920;-84
2022/01/28 13:32:50;;;;;;;;;;;;;;;8.35;100.00;103289.56;5066401;28;19920;-84
2022/01/28 13:35:16;;;;;;;;;;;;;;;8.32;100.00;103294.56;5096568;28;19927;-82
2022/01/28 13:37:44;;;;;;;;;;;;;;;8.34;100.00;103292.97;5078313;28;20388;-85
2022/01/28 13:40:31;;;;;;;;;;;;;;;8.26;100.00;103290.66;5038912;28;19920;-85
2022/01/28 13:43:09;;;;;;;;;;;;;;;8.16;100.00;103295.88;5045031;28;20399;-83
2022/01/28 13:45:40;;;;;;;;;;;;;;;8.20;100.00;103303.25;5057448;28;20440;-84
2022/01/28 13:48:09;;;;;;;;;;;;;;;8.18;100.00;103294.31;5059474;28;19920;-83
2022/01/28 13:50:41;;;;;;;;;;;;;;;8.12;100.00;103303.38;5058814;28;19924;-85
2022/01/28 13:54:15;;;;;;;;;;;;;;;8.12;100.00;103308.63;5076351;28;19978;-84
2022/01/28 13:55:53;;;;;;;;;;;;;;;8.17;100.00;103305.63;5062419;28;19920;-84
2022/01/28 13:58:19;;;;;;;;;;;;;;;8.29;100.00;103307.44;5059041;28;19922;-85
2022/01/28 14:00:45;;;;;;;;;;;;;;;8.27;100.00;103305.59;5059455;28;19955;-82
2022/01/28 14:03:21;;;;;;;;;;;;;;;8.24;100.00;103310.56;5060315;28;19921;-83
2022/01/28 14:05:57;;;;;;;;;;;;;;;8.29;100.00;103300.47;5059803;28;19920;-83
2022/01/28 14:08:42;;;;;;;;;;;;;;;8.14;100.00;103296.53;5097046;28;19995;-83
2022/01/28 14:11:30;;;;;;;;;;;;;;;8.11;100.00;103286.72;5080002;28;19920;-81
2022/01/28 14:14:22;;;;;;;;;;;;;;;8.07;100.00;103272.41;5080401;28;19969;-81
2022/01/28 14:16:48;;;;;;;;;;;;;;;8.14;100.00;103263.38;5066105;28;20019;-82
2022/01/28 14:19:14;;;;;;;;;;;;;;;8.08;100.00;103262.84;5060165;28;20433;-82